This is the latest recevied weather packets stored in our database for station/object BV3BA-13. If no packets are shown the sender has not sent any weather packets the latest 10 day(s).
| Time | Temp. | Humidity | Pressure | Rain* | Wind** | Luminosity | Snow |
|---|---|---|---|---|---|---|---|
| 1777435024 | 28.33° C | 73% | 1007.6 hPa | 0 mm | - | - | - |
| 1777434424 | 28.33° C | 73% | 1007.6 hPa | 0 mm | - | - | - |
| 1777433824 | 28.89° C | 70% | 1007.7 hPa | 0 mm | - | - | - |
| 1777433224 | 28.89° C | 69% | 1007.8 hPa | 0 mm | - | - | - |
| 1777432624 | 28.89° C | 73% | 1007.9 hPa | 0 mm | - | - | - |
| 1777430223 | 28.89° C | 69% | 1008 hPa | 0 mm | - | - | - |
| 1777429024 | 28.89° C | 64% | 1008.3 hPa | 0 mm | - | - | - |
| 1777428424 | 28.33° C | 67% | 1008.2 hPa | 0 mm | - | - | - |
| 1777427224 | 28.33° C | 68% | 1008.4 hPa | 0 mm | - | - | - |
| 1777426023 | 27.78° C | 65% | 1008.4 hPa | 0 mm | - | - | - |
| 1777425424 | 27.78° C | 67% | 1008.4 hPa | 0 mm | - | - | - |
| 1777424824 | 27.22° C | 70% | 1008.3 hPa | 0 mm | - | - | - |
| 1777423624 | 26.67° C | 74% | 1008.2 hPa | 0 mm | - | - | - |
| 1777421824 | 25.56° C | 79% | 1008.1 hPa | 0 mm | - | - | - |
| 1777414626 | 23.33° C | 85% | 1007.3 hPa | 0 mm | - | - | - |
| 1777408624 | 23.33° C | 81% | 1006.6 hPa | 0 mm | - | - | - |
| 1777407423 | 23.33° C | 81% | 1006.5 hPa | 0 mm | - | - | - |
| 1777404424 | 23.89° C | 80% | 1006.6 hPa | 0 mm | - | - | - |
| 1777403823 | 23.89° C | 80% | 1006.7 hPa | 0 mm | - | - | - |
| 1777403224 | 23.89° C | 80% | 1006.8 hPa | 0 mm | - | - | - |
| 1777396024 | 24.44° C | 80% | 1008 hPa | 0 mm | - | - | - |
| 1777394824 | 24.44° C | 80% | 1008.1 hPa | 0 mm | - | - | - |
| 1777393024 | 24.44° C | 79% | 1008.4 hPa | 0 mm | - | - | - |
| 1777391224 | 25° C | 76% | 1008.8 hPa | 0 mm | - | - | - |
| 1777389424 | 24.44° C | 78% | 1009.1 hPa | 0 mm | - | - | - |
* Rain latest hour (hover to see other rain measurements)
** Current wind speed in m/s (hover to see current wind gust speed)